sensor_id;sensor_type;location;lat;lon;timestamp;temperature;humidity
64685;DHT22;51109;47.414;18.954;2022-07-23T00:02:06;27.70;81.10
64685;DHT22;51109;47.414;18.954;2022-07-23T00:04:33;27.80;81.20
64685;DHT22;51109;47.414;18.954;2022-07-23T00:06:58;27.80;80.90
64685;DHT22;51109;47.414;18.954;2022-07-23T00:09:24;27.80;80.80
64685;DHT22;51109;47.414;18.954;2022-07-23T00:11:50;27.90;81.00
64685;DHT22;51109;47.414;18.954;2022-07-23T00:14:16;27.90;81.60
64685;DHT22;51109;47.414;18.954;2022-07-23T00:16:42;27.80;81.30
64685;DHT22;51109;47.414;18.954;2022-07-23T00:19:08;27.60;81.20
64685;DHT22;51109;47.414;18.954;2022-07-23T00:21:34;27.50;81.60
64685;DHT22;51109;47.414;18.954;2022-07-23T00:24:00;27.40;81.80
64685;DHT22;51109;47.414;18.954;2022-07-23T00:26:26;27.30;82.30
64685;DHT22;51109;47.414;18.954;2022-07-23T00:28:52;27.20;82.50
64685;DHT22;51109;47.414;18.954;2022-07-23T00:31:17;27.10;82.50
64685;DHT22;51109;47.414;18.954;2022-07-23T00:33:43;27.10;83.20
64685;DHT22;51109;47.414;18.954;2022-07-23T00:36:09;27.20;83.10
64685;DHT22;51109;47.414;18.954;2022-07-23T00:38:36;27.10;83.00
64685;DHT22;51109;47.414;18.954;2022-07-23T00:41:02;27.10;83.30
64685;DHT22;51109;47.414;18.954;2022-07-23T00:43:28;27.00;83.60
64685;DHT22;51109;47.414;18.954;2022-07-23T00:45:54;27.00;83.80
64685;DHT22;51109;47.414;18.954;2022-07-23T00:48:20;26.80;84.40
64685;DHT22;51109;47.414;18.954;2022-07-23T00:50:46;26.80;84.50
64685;DHT22;51109;47.414;18.954;2022-07-23T00:53:12;26.80;85.10
64685;DHT22;51109;47.414;18.954;2022-07-23T00:55:38;26.60;86.10
64685;DHT22;51109;47.414;18.954;2022-07-23T00:58:04;26.70;86.40
64685;DHT22;51109;47.414;18.954;2022-07-23T01:00:31;26.60;88.20
64685;DHT22;51109;47.414;18.954;2022-07-23T01:02:57;26.50;90.00
64685;DHT22;51109;47.414;18.954;2022-07-23T01:05:23;26.60;90.10
64685;DHT22;51109;47.414;18.954;2022-07-23T01:07:51;26.70;90.40
64685;DHT22;51109;47.414;18.954;2022-07-23T01:10:18;26.70;90.70
64685;DHT22;51109;47.414;18.954;2022-07-23T01:13:09;26.60;90.90
64685;DHT22;51109;47.414;18.954;2022-07-23T01:15:37;26.50;91.10
64685;DHT22;51109;47.414;18.954;2022-07-23T01:18:06;26.40;91.10
64685;DHT22;51109;47.414;18.954;2022-07-23T01:20:33;26.20;90.90
64685;DHT22;51109;47.414;18.954;2022-07-23T01:22:59;26.10;90.60
64685;DHT22;51109;47.414;18.954;2022-07-23T01:25:25;26.00;90.90
64685;DHT22;51109;47.414;18.954;2022-07-23T01:27:52;25.90;90.70
64685;DHT22;51109;47.414;18.954;2022-07-23T01:30:18;25.80;91.00
64685;DHT22;51109;47.414;18.954;2022-07-23T01:32:45;25.70;91.30
64685;DHT22;51109;47.414;18.954;2022-07-23T01:35:11;25.70;91.50
64685;DHT22;51109;47.414;18.954;2022-07-23T01:37:37;25.70;91.60
64685;DHT22;51109;47.414;18.954;2022-07-23T01:40:05;25.60;91.60
64685;DHT22;51109;47.414;18.954;2022-07-23T01:42:31;25.60;91.60
64685;DHT22;51109;47.414;18.954;2022-07-23T01:44:57;25.60;91.40
64685;DHT22;51109;47.414;18.954;2022-07-23T01:47:23;25.70;91.20
64685;DHT22;51109;47.414;18.954;2022-07-23T01:49:49;25.90;91.20
64685;DHT22;51109;47.414;18.954;2022-07-23T01:52:15;25.90;90.60
64685;DHT22;51109;47.414;18.954;2022-07-23T01:54:42;25.90;90.50
64685;DHT22;51109;47.414;18.954;2022-07-23T01:57:08;26.00;90.40
64685;DHT22;51109;47.414;18.954;2022-07-23T01:59:34;26.00;90.20
64685;DHT22;51109;47.414;18.954;2022-07-23T02:02:01;26.00;90.20
64685;DHT22;51109;47.414;18.954;2022-07-23T02:04:27;25.90;90.20
64685;DHT22;51109;47.414;18.954;2022-07-23T02:06:54;25.80;90.30
64685;DHT22;51109;47.414;18.954;2022-07-23T02:09:20;25.80;90.30
64685;DHT22;51109;47.414;18.954;2022-07-23T02:11:46;25.80;90.30
64685;DHT22;51109;47.414;18.954;2022-07-23T02:14:11;25.80;90.20
64685;DHT22;51109;47.414;18.954;2022-07-23T02:16:38;25.70;90.30
64685;DHT22;51109;47.414;18.954;2022-07-23T02:19:04;25.70;90.40
64685;DHT22;51109;47.414;18.954;2022-07-23T02:21:29;25.70;90.50
64685;DHT22;51109;47.414;18.954;2022-07-23T02:23:55;25.60;90.50
64685;DHT22;51109;47.414;18.954;2022-07-23T02:26:21;25.70;90.60
64685;DHT22;51109;47.414;18.954;2022-07-23T02:28:47;25.70;90.70
64685;DHT22;51109;47.414;18.954;2022-07-23T02:31:13;25.60;91.20
64685;DHT22;51109;47.414;18.954;2022-07-23T02:33:39;25.70;91.10
64685;DHT22;51109;47.414;18.954;2022-07-23T02:36:05;25.70;91.30
64685;DHT22;51109;47.414;18.954;2022-07-23T02:38:31;25.70;91.40
64685;DHT22;51109;47.414;18.954;2022-07-23T02:40:57;25.70;91.60
64685;DHT22;51109;47.414;18.954;2022-07-23T02:43:23;25.60;91.80
64685;DHT22;51109;47.414;18.954;2022-07-23T02:45:49;25.60;91.80
64685;DHT22;51109;47.414;18.954;2022-07-23T02:48:14;25.60;91.90
64685;DHT22;51109;47.414;18.954;2022-07-23T02:50:40;25.50;92.00
64685;DHT22;51109;47.414;18.954;2022-07-23T02:53:06;25.40;92.20
64685;DHT22;51109;47.414;18.954;2022-07-23T02:55:32;25.40;92.20
64685;DHT22;51109;47.414;18.954;2022-07-23T02:57:58;25.40;92.20
64685;DHT22;51109;47.414;18.954;2022-07-23T03:00:24;25.40;92.30
64685;DHT22;51109;47.414;18.954;2022-07-23T03:02:50;25.40;92.30
64685;DHT22;51109;47.414;18.954;2022-07-23T03:05:15;25.40;92.30
64685;DHT22;51109;47.414;18.954;2022-07-23T03:07:41;25.40;92.60
64685;DHT22;51109;47.414;18.954;2022-07-23T03:10:07;25.20;92.70
64685;DHT22;51109;47.414;18.954;2022-07-23T03:12:33;25.20;92.90
64685;DHT22;51109;47.414;18.954;2022-07-23T03:14:59;25.30;92.70
64685;DHT22;51109;47.414;18.954;2022-07-23T03:17:25;25.30;92.70
64685;DHT22;51109;47.414;18.954;2022-07-23T03:19:51;25.50;92.40
64685;DHT22;51109;47.414;18.954;2022-07-23T03:22:17;25.50;92.00
64685;DHT22;51109;47.414;18.954;2022-07-23T03:24:43;25.30;92.10
64685;DHT22;51109;47.414;18.954;2022-07-23T03:27:25;25.40;92.80
64685;DHT22;51109;47.414;18.954;2022-07-23T03:29:53;25.40;92.60
64685;DHT22;51109;47.414;18.954;2022-07-23T03:32:20;25.30;92.40
64685;DHT22;51109;47.414;18.954;2022-07-23T03:34:46;25.30;92.40
64685;DHT22;51109;47.414;18.954;2022-07-23T03:37:12;25.20;92.60
64685;DHT22;51109;47.414;18.954;2022-07-23T03:39:38;25.40;92.80
64685;DHT22;51109;47.414;18.954;2022-07-23T03:42:04;25.40;92.70
64685;DHT22;51109;47.414;18.954;2022-07-23T03:44:30;25.30;92.90
64685;DHT22;51109;47.414;18.954;2022-07-23T03:46:55;25.20;93.10
64685;DHT22;51109;47.414;18.954;2022-07-23T03:49:21;25.20;94.10
64685;DHT22;51109;47.414;18.954;2022-07-23T03:51:47;25.20;93.80
64685;DHT22;51109;47.414;18.954;2022-07-23T03:54:13;25.30;92.90
64685;DHT22;51109;47.414;18.954;2022-07-23T03:56:39;25.40;92.90
64685;DHT22;51109;47.414;18.954;2022-07-23T03:59:05;25.60;92.50
64685;DHT22;51109;47.414;18.954;2022-07-23T04:01:31;25.60;92.10
64685;DHT22;51109;47.414;18.954;2022-07-23T04:03:57;25.70;92.10
64685;DHT22;51109;47.414;18.954;2022-07-23T04:06:23;25.70;92.00
64685;DHT22;51109;47.414;18.954;2022-07-23T04:08:49;25.80;92.00
64685;DHT22;51109;47.414;18.954;2022-07-23T04:11:15;25.80;92.00
64685;DHT22;51109;47.414;18.954;2022-07-23T04:13:41;25.90;92.60
64685;DHT22;51109;47.414;18.954;2022-07-23T04:16:07;25.90;92.00
64685;DHT22;51109;47.414;18.954;2022-07-23T04:18:33;25.90;92.20
64685;DHT22;51109;47.414;18.954;2022-07-23T04:20:59;25.80;92.80
64685;DHT22;51109;47.414;18.954;2022-07-23T04:23:25;25.90;92.50
64685;DHT22;51109;47.414;18.954;2022-07-23T04:25:50;25.90;92.50
64685;DHT22;51109;47.414;18.954;2022-07-23T04:28:16;25.90;92.90
64685;DHT22;51109;47.414;18.954;2022-07-23T04:30:43;26.00;93.40
64685;DHT22;51109;47.414;18.954;2022-07-23T04:33:09;26.10;92.90
64685;DHT22;51109;47.414;18.954;2022-07-23T04:35:35;26.20;92.70
64685;DHT22;51109;47.414;18.954;2022-07-23T04:38:02;26.30;92.70
64685;DHT22;51109;47.414;18.954;2022-07-23T04:40:28;26.20;92.90
64685;DHT22;51109;47.414;18.954;2022-07-23T04:42:54;26.30;92.70
64685;DHT22;51109;47.414;18.954;2022-07-23T04:45:21;26.40;92.60
64685;DHT22;51109;47.414;18.954;2022-07-23T04:47:47;26.60;92.80
64685;DHT22;51109;47.414;18.954;2022-07-23T04:50:13;26.70;91.20
64685;DHT22;51109;47.414;18.954;2022-07-23T04:52:39;26.70;91.80
64685;DHT22;51109;47.414;18.954;2022-07-23T04:55:05;26.60;91.60
64685;DHT22;51109;47.414;18.954;2022-07-23T04:57:31;26.60;91.70
64685;DHT22;51109;47.414;18.954;2022-07-23T04:59:57;26.70;91.50
64685;DHT22;51109;47.414;18.954;2022-07-23T05:02:23;26.70;91.20
64685;DHT22;51109;47.414;18.954;2022-07-23T05:04:49;26.70;90.90
64685;DHT22;51109;47.414;18.954;2022-07-23T05:07:15;26.80;91.80
64685;DHT22;51109;47.414;18.954;2022-07-23T05:09:41;27.00;91.30
64685;DHT22;51109;47.414;18.954;2022-07-23T05:12:07;27.20;91.20
64685;DHT22;51109;47.414;18.954;2022-07-23T05:14:33;27.40;90.40
64685;DHT22;51109;47.414;18.954;2022-07-23T05:16:59;27.60;90.20
64685;DHT22;51109;47.414;18.954;2022-07-23T05:19:25;27.80;90.30
64685;DHT22;51109;47.414;18.954;2022-07-23T05:21:50;28.00;90.50
64685;DHT22;51109;47.414;18.954;2022-07-23T05:24:16;28.00;87.40
64685;DHT22;51109;47.414;18.954;2022-07-23T05:26:42;28.10;88.00
64685;DHT22;51109;47.414;18.954;2022-07-23T05:29:08;28.20;87.50
64685;DHT22;51109;47.414;18.954;2022-07-23T05:31:34;28.30;87.20
64685;DHT22;51109;47.414;18.954;2022-07-23T05:34:00;28.30;86.90
64685;DHT22;51109;47.414;18.954;2022-07-23T05:36:26;28.40;87.40
64685;DHT22;51109;47.414;18.954;2022-07-23T05:38:52;28.50;85.90
64685;DHT22;51109;47.414;18.954;2022-07-23T05:41:17;28.70;85.30
64685;DHT22;51109;47.414;18.954;2022-07-23T05:43:43;28.90;86.70
64685;DHT22;51109;47.414;18.954;2022-07-23T05:46:09;29.10;85.80
64685;DHT22;51109;47.414;18.954;2022-07-23T05:48:35;29.20;83.90
64685;DHT22;51109;47.414;18.954;2022-07-23T05:51:01;29.20;81.60
64685;DHT22;51109;47.414;18.954;2022-07-23T05:53:29;29.30;82.80
64685;DHT22;51109;47.414;18.954;2022-07-23T05:55:55;29.40;83.90
64685;DHT22;51109;47.414;18.954;2022-07-23T05:58:21;29.60;87.00
64685;DHT22;51109;47.414;18.954;2022-07-23T06:00:46;29.80;84.50
64685;DHT22;51109;47.414;18.954;2022-07-23T06:03:12;29.90;83.40
64685;DHT22;51109;47.414;18.954;2022-07-23T06:05:38;30.10;82.20
64685;DHT22;51109;47.414;18.954;2022-07-23T06:08:04;30.10;80.30
64685;DHT22;51109;47.414;18.954;2022-07-23T06:10:30;30.30;80.90
64685;DHT22;51109;47.414;18.954;2022-07-23T06:12:56;30.40;77.30
64685;DHT22;51109;47.414;18.954;2022-07-23T06:15:21;30.60;84.50
64685;DHT22;51109;47.414;18.954;2022-07-23T06:17:47;30.70;82.70
64685;DHT22;51109;47.414;18.954;2022-07-23T06:20:13;30.90;84.80
64685;DHT22;51109;47.414;18.954;2022-07-23T06:22:39;31.00;82.00
64685;DHT22;51109;47.414;18.954;2022-07-23T06:25:06;31.00;80.60
64685;DHT22;51109;47.414;18.954;2022-07-23T06:27:32;31.10;78.50
64685;DHT22;51109;47.414;18.954;2022-07-23T06:29:58;31.10;78.50
64685;DHT22;51109;47.414;18.954;2022-07-23T06:32:23;31.00;80.40
64685;DHT22;51109;47.414;18.954;2022-07-23T06:34:49;31.00;80.00
64685;DHT22;51109;47.414;18.954;2022-07-23T06:37:16;31.20;80.00
64685;DHT22;51109;47.414;18.954;2022-07-23T06:39:42;31.40;78.90
64685;DHT22;51109;47.414;18.954;2022-07-23T06:42:08;31.50;77.70
64685;DHT22;51109;47.414;18.954;2022-07-23T06:44:35;31.60;81.30
64685;DHT22;51109;47.414;18.954;2022-07-23T06:47:01;31.60;77.20
64685;DHT22;51109;47.414;18.954;2022-07-23T06:49:28;31.70;79.40
64685;DHT22;51109;47.414;18.954;2022-07-23T06:51:53;31.80;79.40
64685;DHT22;51109;47.414;18.954;2022-07-23T06:54:19;32.00;79.60
64685;DHT22;51109;47.414;18.954;2022-07-23T06:56:45;32.10;80.20
64685;DHT22;51109;47.414;18.954;2022-07-23T06:59:11;32.30;82.30
64685;DHT22;51109;47.414;18.954;2022-07-23T07:01:37;32.40;77.10
64685;DHT22;51109;47.414;18.954;2022-07-23T07:04:03;32.50;77.30
64685;DHT22;51109;47.414;18.954;2022-07-23T07:06:29;32.50;78.80
64685;DHT22;51109;47.414;18.954;2022-07-23T07:08:55;32.50;76.50
64685;DHT22;51109;47.414;18.954;2022-07-23T07:11:21;32.70;79.80
64685;DHT22;51109;47.414;18.954;2022-07-23T07:13:47;32.80;77.20
64685;DHT22;51109;47.414;18.954;2022-07-23T07:16:13;32.90;76.90
64685;DHT22;51109;47.414;18.954;2022-07-23T07:18:39;32.90;78.80
64685;DHT22;51109;47.414;18.954;2022-07-23T07:21:05;33.00;78.70
64685;DHT22;51109;47.414;18.954;2022-07-23T07:23:30;33.10;78.90
64685;DHT22;51109;47.414;18.954;2022-07-23T07:25:56;33.20;74.70
64685;DHT22;51109;47.414;18.954;2022-07-23T07:28:22;33.30;74.30
64685;DHT22;51109;47.414;18.954;2022-07-23T07:30:48;33.50;74.60
64685;DHT22;51109;47.414;18.954;2022-07-23T07:33:14;33.60;76.00
64685;DHT22;51109;47.414;18.954;2022-07-23T07:35:40;33.80;75.20
64685;DHT22;51109;47.414;18.954;2022-07-23T07:38:06;33.90;75.60
64685;DHT22;51109;47.414;18.954;2022-07-23T07:40:32;33.90;77.50
64685;DHT22;51109;47.414;18.954;2022-07-23T07:42:57;34.00;74.20
64685;DHT22;51109;47.414;18.954;2022-07-23T07:45:24;34.10;72.20
64685;DHT22;51109;47.414;18.954;2022-07-23T07:47:51;34.10;72.00
64685;DHT22;51109;47.414;18.954;2022-07-23T07:50:19;34.10;73.60
64685;DHT22;51109;47.414;18.954;2022-07-23T07:52:45;34.20;73.90
64685;DHT22;51109;47.414;18.954;2022-07-23T07:55:11;34.20;75.20
64685;DHT22;51109;47.414;18.954;2022-07-23T07:57:37;34.30;74.10
64685;DHT22;51109;47.414;18.954;2022-07-23T08:00:08;34.40;76.40
64685;DHT22;51109;47.414;18.954;2022-07-23T08:02:49;34.40;73.30
64685;DHT22;51109;47.414;18.954;2022-07-23T08:05:19;34.40;71.30
64685;DHT22;51109;47.414;18.954;2022-07-23T08:07:46;34.50;69.80
64685;DHT22;51109;47.414;18.954;2022-07-23T08:10:12;34.40;69.90
64685;DHT22;51109;47.414;18.954;2022-07-23T08:12:48;34.40;71.60
64685;DHT22;51109;47.414;18.954;2022-07-23T08:15:18;34.40;71.80
64685;DHT22;51109;47.414;18.954;2022-07-23T08:17:45;34.50;71.30
64685;DHT22;51109;47.414;18.954;2022-07-23T08:20:13;34.30;70.60
64685;DHT22;51109;47.414;18.954;2022-07-23T08:22:43;34.40;71.90
64685;DHT22;51109;47.414;18.954;2022-07-23T08:25:09;34.40;71.50
64685;DHT22;51109;47.414;18.954;2022-07-23T08:27:35;34.50;71.60
64685;DHT22;51109;47.414;18.954;2022-07-23T08:30:01;34.60;73.70
64685;DHT22;51109;47.414;18.954;2022-07-23T08:32:28;34.70;72.00
64685;DHT22;51109;47.414;18.954;2022-07-23T08:34:54;34.70;70.20
64685;DHT22;51109;47.414;18.954;2022-07-23T08:37:19;34.80;69.60
64685;DHT22;51109;47.414;18.954;2022-07-23T08:39:46;35.00;68.10
64685;DHT22;51109;47.414;18.954;2022-07-23T08:42:13;35.10;68.40
64685;DHT22;51109;47.414;18.954;2022-07-23T08:44:43;35.20;67.40
64685;DHT22;51109;47.414;18.954;2022-07-23T08:47:13;35.30;67.60
64685;DHT22;51109;47.414;18.954;2022-07-23T08:49:41;35.40;69.70
64685;DHT22;51109;47.414;18.954;2022-07-23T08:52:07;35.40;69.10
64685;DHT22;51109;47.414;18.954;2022-07-23T08:54:34;35.50;69.40
64685;DHT22;51109;47.414;18.954;2022-07-23T08:57:00;35.70;70.70
64685;DHT22;51109;47.414;18.954;2022-07-23T08:59:26;35.70;70.20
64685;DHT22;51109;47.414;18.954;2022-07-23T09:01:53;35.90;71.40
64685;DHT22;51109;47.414;18.954;2022-07-23T09:04:19;36.00;68.40
64685;DHT22;51109;47.414;18.954;2022-07-23T09:06:45;36.00;65.40
64685;DHT22;51109;47.414;18.954;2022-07-23T09:09:20;36.00;63.60
64685;DHT22;51109;47.414;18.954;2022-07-23T09:12:01;35.90;68.30
64685;DHT22;51109;47.414;18.954;2022-07-23T09:14:42;36.00;66.70
64685;DHT22;51109;47.414;18.954;2022-07-23T09:17:13;36.20;69.00
64685;DHT22;51109;47.414;18.954;2022-07-23T09:19:43;36.20;67.60
64685;DHT22;51109;47.414;18.954;2022-07-23T09:25:09;36.20;65.60
64685;DHT22;51109;47.414;18.954;2022-07-23T09:27:49;36.10;67.30
64685;DHT22;51109;47.414;18.954;2022-07-23T09:30:16;36.20;66.10
64685;DHT22;51109;47.414;18.954;2022-07-23T09:32:42;36.30;67.20
64685;DHT22;51109;47.414;18.954;2022-07-23T09:35:08;36.30;67.90
64685;DHT22;51109;47.414;18.954;2022-07-23T09:37:34;36.30;65.50
64685;DHT22;51109;47.414;18.954;2022-07-23T09:40:08;36.30;66.70
64685;DHT22;51109;47.414;18.954;2022-07-23T09:42:37;36.40;67.90
64685;DHT22;51109;47.414;18.954;2022-07-23T09:45:03;36.00;64.20
64685;DHT22;51109;47.414;18.954;2022-07-23T09:47:31;35.80;68.80
64685;DHT22;51109;47.414;18.954;2022-07-23T09:50:09;36.00;67.30
64685;DHT22;51109;47.414;18.954;2022-07-23T09:52:43;36.10;66.60
64685;DHT22;51109;47.414;18.954;2022-07-23T09:55:10;36.30;65.60
64685;DHT22;51109;47.414;18.954;2022-07-23T09:57:36;36.50;66.20
64685;DHT22;51109;47.414;18.954;2022-07-23T10:00:06;36.60;66.90
64685;DHT22;51109;47.414;18.954;2022-07-23T10:02:34;36.70;64.80
64685;DHT22;51109;47.414;18.954;2022-07-23T10:05:01;36.70;65.00
64685;DHT22;51109;47.414;18.954;2022-07-23T10:07:31;36.70;64.70
64685;DHT22;51109;47.414;18.954;2022-07-23T10:10:00;36.80;66.00
64685;DHT22;51109;47.414;18.954;2022-07-23T10:12:26;36.80;62.60
64685;DHT22;51109;47.414;18.954;2022-07-23T10:15:11;36.80;65.00
64685;DHT22;51109;47.414;18.954;2022-07-23T10:17:37;36.90;64.80
64685;DHT22;51109;47.414;18.954;2022-07-23T10:20:04;37.00;63.70
64685;DHT22;51109;47.414;18.954;2022-07-23T10:22:36;36.90;64.10
64685;DHT22;51109;47.414;18.954;2022-07-23T10:25:22;36.80;62.50
64685;DHT22;51109;47.414;18.954;2022-07-23T10:31:10;36.80;63.20
64685;DHT22;51109;47.414;18.954;2022-07-23T10:36:39;37.00;63.50
64685;DHT22;51109;47.414;18.954;2022-07-23T10:39:29;37.00;63.00
64685;DHT22;51109;47.414;18.954;2022-07-23T10:42:16;37.20;62.00
64685;DHT22;51109;47.414;18.954;2022-07-23T10:44:47;37.30;62.10
64685;DHT22;51109;47.414;18.954;2022-07-23T10:47:25;37.20;62.80
64685;DHT22;51109;47.414;18.954;2022-07-23T10:49:52;37.50;61.00
64685;DHT22;51109;47.414;18.954;2022-07-23T10:52:24;37.60;58.50
64685;DHT22;51109;47.414;18.954;2022-07-23T10:57:25;37.70;60.40
64685;DHT22;51109;47.414;18.954;2022-07-23T11:00:12;37.80;58.40
64685;DHT22;51109;47.414;18.954;2022-07-23T11:02:46;37.80;56.80
64685;DHT22;51109;47.414;18.954;2022-07-23T11:05:15;37.50;58.00
64685;DHT22;51109;47.414;18.954;2022-07-23T11:10:40;37.90;58.40
64685;DHT22;51109;47.414;18.954;2022-07-23T11:24:18;38.00;56.10
64685;DHT22;51109;47.414;18.954;2022-07-23T11:27:03;37.90;57.20
64685;DHT22;51109;47.414;18.954;2022-07-23T11:32:01;37.90;57.80
64685;DHT22;51109;47.414;18.954;2022-07-23T11:37:05;37.80;58.50
64685;DHT22;51109;47.414;18.954;2022-07-23T11:39:32;37.80;57.40
64685;DHT22;51109;47.414;18.954;2022-07-23T11:41:59;37.70;55.20
64685;DHT22;51109;47.414;18.954;2022-07-23T11:44:37;37.60;54.40
64685;DHT22;51109;47.414;18.954;2022-07-23T11:47:09;37.80;55.50
64685;DHT22;51109;47.414;18.954;2022-07-23T11:49:35;37.80;57.00
64685;DHT22;51109;47.414;18.954;2022-07-23T11:54:32;37.70;57.10
64685;DHT22;51109;47.414;18.954;2022-07-23T11:57:00;37.60;56.70
64685;DHT22;51109;47.414;18.954;2022-07-23T11:59:27;37.70;57.50
64685;DHT22;51109;47.414;18.954;2022-07-23T12:02:02;37.70;56.80
64685;DHT22;51109;47.414;18.954;2022-07-23T12:09:49;37.60;57.80
64685;DHT22;51109;47.414;18.954;2022-07-23T12:12:15;37.80;57.40
64685;DHT22;51109;47.414;18.954;2022-07-23T12:14:55;37.90;56.90
64685;DHT22;51109;47.414;18.954;2022-07-23T12:17:28;38.00;56.50
64685;DHT22;51109;47.414;18.954;2022-07-23T12:19:55;38.00;56.90
64685;DHT22;51109;47.414;18.954;2022-07-23T12:22:23;38.00;58.80
64685;DHT22;51109;47.414;18.954;2022-07-23T12:27:24;37.90;55.50
64685;DHT22;51109;47.414;18.954;2022-07-23T12:29:51;38.00;57.80
64685;DHT22;51109;47.414;18.954;2022-07-23T12:32:22;38.20;57.50
64685;DHT22;51109;47.414;18.954;2022-07-23T12:34:49;38.40;55.50
64685;DHT22;51109;47.414;18.954;2022-07-23T12:37:36;38.50;56.10
64685;DHT22;51109;47.414;18.954;2022-07-23T12:40:25;38.60;54.50
64685;DHT22;51109;47.414;18.954;2022-07-23T12:42:57;38.60;55.70
64685;DHT22;51109;47.414;18.954;2022-07-23T12:45:23;38.60;57.30
64685;DHT22;51109;47.414;18.954;2022-07-23T12:48:01;38.70;56.40
64685;DHT22;51109;47.414;18.954;2022-07-23T12:50:36;38.60;59.40
64685;DHT22;51109;47.414;18.954;2022-07-23T12:55:37;38.30;58.10
64685;DHT22;51109;47.414;18.954;2022-07-23T12:58:08;38.30;56.50
64685;DHT22;51109;47.414;18.954;2022-07-23T13:01:01;38.40;57.50
64685;DHT22;51109;47.414;18.954;2022-07-23T13:03:41;38.60;56.80
64685;DHT22;51109;47.414;18.954;2022-07-23T13:06:10;38.60;57.50
64685;DHT22;51109;47.414;18.954;2022-07-23T13:08:38;38.80;57.30
64685;DHT22;51109;47.414;18.954;2022-07-23T13:11:06;38.80;57.00
64685;DHT22;51109;47.414;18.954;2022-07-23T13:13:33;38.70;55.80
64685;DHT22;51109;47.414;18.954;2022-07-23T13:16:01;38.60;56.80
64685;DHT22;51109;47.414;18.954;2022-07-23T13:18:27;38.50;56.60
64685;DHT22;51109;47.414;18.954;2022-07-23T13:20:54;38.60;56.50
64685;DHT22;51109;47.414;18.954;2022-07-23T13:23:21;38.80;56.50
64685;DHT22;51109;47.414;18.954;2022-07-23T13:25:48;38.90;56.90
64685;DHT22;51109;47.414;18.954;2022-07-23T13:28:15;39.00;55.30
64685;DHT22;51109;47.414;18.954;2022-07-23T13:30:42;39.20;56.30
64685;DHT22;51109;47.414;18.954;2022-07-23T13:33:10;39.10;54.40
64685;DHT22;51109;47.414;18.954;2022-07-23T13:35:36;39.20;54.20
64685;DHT22;51109;47.414;18.954;2022-07-23T13:38:04;39.30;55.20
64685;DHT22;51109;47.414;18.954;2022-07-23T13:40:35;39.30;54.20
64685;DHT22;51109;47.414;18.954;2022-07-23T13:43:01;39.40;53.00
64685;DHT22;51109;47.414;18.954;2022-07-23T13:45:27;39.40;53.10
64685;DHT22;51109;47.414;18.954;2022-07-23T13:47:53;39.40;53.60
64685;DHT22;51109;47.414;18.954;2022-07-23T13:50:19;39.60;53.20
64685;DHT22;51109;47.414;18.954;2022-07-23T13:52:45;39.70;52.30
64685;DHT22;51109;47.414;18.954;2022-07-23T13:55:11;39.50;52.40
64685;DHT22;51109;47.414;18.954;2022-07-23T13:57:37;39.50;53.40
64685;DHT22;51109;47.414;18.954;2022-07-23T14:00:05;39.60;52.90
64685;DHT22;51109;47.414;18.954;2022-07-23T14:02:33;39.70;52.50
64685;DHT22;51109;47.414;18.954;2022-07-23T14:05:00;39.80;53.00
64685;DHT22;51109;47.414;18.954;2022-07-23T14:07:26;39.80;53.00
64685;DHT22;51109;47.414;18.954;2022-07-23T14:09:52;39.80;52.60
64685;DHT22;51109;47.414;18.954;2022-07-23T14:12:18;39.70;53.00
64685;DHT22;51109;47.414;18.954;2022-07-23T14:14:44;39.80;51.90
64685;DHT22;51109;47.414;18.954;2022-07-23T14:17:10;39.80;52.40
64685;DHT22;51109;47.414;18.954;2022-07-23T14:19:36;39.90;51.30
64685;DHT22;51109;47.414;18.954;2022-07-23T14:22:02;39.90;52.20
64685;DHT22;51109;47.414;18.954;2022-07-23T14:24:28;40.10;51.80
64685;DHT22;51109;47.414;18.954;2022-07-23T14:26:54;39.90;51.50
64685;DHT22;51109;47.414;18.954;2022-07-23T14:29:20;39.70;51.70
64685;DHT22;51109;47.414;18.954;2022-07-23T14:31:46;39.70;52.00
64685;DHT22;51109;47.414;18.954;2022-07-23T14:34:12;39.60;53.60
64685;DHT22;51109;47.414;18.954;2022-07-23T14:36:38;39.60;52.10
64685;DHT22;51109;47.414;18.954;2022-07-23T14:39:05;39.70;51.70
64685;DHT22;51109;47.414;18.954;2022-07-23T14:41:35;39.50;50.60
64685;DHT22;51109;47.414;18.954;2022-07-23T14:44:02;39.40;50.30
64685;DHT22;51109;47.414;18.954;2022-07-23T14:46:28;39.40;50.90
64685;DHT22;51109;47.414;18.954;2022-07-23T14:48:54;39.20;51.50
64685;DHT22;51109;47.414;18.954;2022-07-23T14:51:20;38.80;51.80
64685;DHT22;51109;47.414;18.954;2022-07-23T14:53:45;38.50;52.20
64685;DHT22;51109;47.414;18.954;2022-07-23T14:56:11;38.30;53.30
64685;DHT22;51109;47.414;18.954;2022-07-23T14:58:39;38.00;52.80
64685;DHT22;51109;47.414;18.954;2022-07-23T15:01:05;37.80;52.70
64685;DHT22;51109;47.414;18.954;2022-07-23T15:03:31;37.60;52.60
64685;DHT22;51109;47.414;18.954;2022-07-23T15:05:57;37.40;53.50
64685;DHT22;51109;47.414;18.954;2022-07-23T15:08:24;37.20;53.80
64685;DHT22;51109;47.414;18.954;2022-07-23T15:10:50;37.00;54.30
64685;DHT22;51109;47.414;18.954;2022-07-23T15:13:15;37.00;54.30
64685;DHT22;51109;47.414;18.954;2022-07-23T15:15:41;36.90;55.10
64685;DHT22;51109;47.414;18.954;2022-07-23T15:18:08;36.70;54.90
64685;DHT22;51109;47.414;18.954;2022-07-23T15:20:33;36.60;54.40
64685;DHT22;51109;47.414;18.954;2022-07-23T15:22:59;36.50;54.70
64685;DHT22;51109;47.414;18.954;2022-07-23T15:25:25;36.50;54.90
64685;DHT22;51109;47.414;18.954;2022-07-23T15:27:51;36.50;55.20
64685;DHT22;51109;47.414;18.954;2022-07-23T15:30:17;36.40;55.90
64685;DHT22;51109;47.414;18.954;2022-07-23T15:32:43;36.40;55.80
64685;DHT22;51109;47.414;18.954;2022-07-23T15:35:09;35.70;60.90
64685;DHT22;51109;47.414;18.954;2022-07-23T15:37:35;34.70;66.00
64685;DHT22;51109;47.414;18.954;2022-07-23T15:40:02;33.70;69.90
64685;DHT22;51109;47.414;18.954;2022-07-23T15:42:31;32.80;73.10
64685;DHT22;51109;47.414;18.954;2022-07-23T15:44:57;32.00;75.70
64685;DHT22;51109;47.414;18.954;2022-07-23T15:47:23;30.90;78.60
64685;DHT22;51109;47.414;18.954;2022-07-23T15:49:49;30.20;80.90
64685;DHT22;51109;47.414;18.954;2022-07-23T15:52:15;29.90;82.40
64685;DHT22;51109;47.414;18.954;2022-07-23T15:54:41;29.80;83.10
64685;DHT22;51109;47.414;18.954;2022-07-23T15:57:08;29.50;83.70
64685;DHT22;51109;47.414;18.954;2022-07-23T15:59:34;29.50;83.90
64685;DHT22;51109;47.414;18.954;2022-07-23T16:02:00;29.40;83.80